Time;durP1;ratioP1;P1;durP2;ratioP2;P2;SDS_P1;SDS_P2;PMS_P1;PMS_P2;Temp;Humidity;BMP_temperature;BMP_pressure;BME280_temperature;BME280_humidity;BME280_pressure;Samples;Min_cycle;Max_cycle;Signal;HPM_P1;HPM_P2
2021/07/21 00:00:51;;;;;;;1.15;0.35;;;;;;;-142.37;100.00;59669.53;5013394;28;20064;-64
2021/07/21 00:03:18;;;;;;;1.48;0.73;;;;;;;-142.37;100.00;59669.53;5013550;28;20040;-65
2021/07/21 00:05:43;;;;;;;1.13;0.30;;;;;;;-142.37;100.00;59669.53;5013774;28;20026;-64
2021/07/21 00:08:09;;;;;;;2.22;0.75;;;;;;;-142.37;100.00;59669.53;5013456;28;20376;-65
2021/07/21 00:10:35;;;;;;;1.98;0.40;;;;;;;-142.37;100.00;59669.53;5012015;28;20053;-65
2021/07/21 00:16:08;;;;;;;0.98;0.38;;;;;;;-142.37;100.00;59669.53;5014233;28;20028;-65
2021/07/21 00:18:47;;;;;;;1.52;0.40;;;;;;;-142.37;100.00;59669.53;5013588;28;20029;-64
2021/07/21 00:21:15;;;;;;;0.90;0.38;;;;;;;-142.37;100.00;59669.53;5013593;28;20030;-65
2021/07/21 00:23:41;;;;;;;0.25;0.20;;;;;;;-142.37;100.00;59669.53;5013827;28;20109;-65
2021/07/21 00:26:07;;;;;;;1.95;0.55;;;;;;;-142.37;100.00;59669.53;5013286;28;20526;-65
2021/07/21 00:28:34;;;;;;;0.55;0.35;;;;;;;-142.37;100.00;59669.53;5013435;28;20049;-65
2021/07/21 00:31:00;;;;;;;2.83;0.50;;;;;;;-142.37;100.00;59669.53;5013461;28;20025;-65
2021/07/21 00:33:26;;;;;;;0.65;0.30;;;;;;;-142.37;100.00;59669.53;5013493;28;20029;-66
2021/07/21 00:35:51;;;;;;;1.05;0.50;;;;;;;-142.37;100.00;59669.53;5013197;28;20113;-65
2021/07/21 00:38:16;;;;;;;1.50;0.22;;;;;;;-142.37;100.00;59669.53;5013274;28;20041;-64
2021/07/21 00:40:42;;;;;;;0.60;0.30;;;;;;;-142.37;100.00;59669.53;5013357;28;20109;-64
2021/07/21 00:43:08;;;;;;;0.40;0.30;;;;;;;-142.37;100.00;59669.53;5012851;28;20049;-64
2021/07/21 00:45:34;;;;;;;1.55;0.32;;;;;;;-142.37;100.00;59669.53;5013322;28;20072;-64
2021/07/21 00:48:00;;;;;;;1.52;0.40;;;;;;;-142.37;100.00;59669.53;5013397;28;20030;-64
2021/07/21 00:50:26;;;;;;;1.25;0.47;;;;;;;-142.37;100.00;59669.53;5013172;28;20105;-65
2021/07/21 00:52:52;;;;;;;0.98;0.43;;;;;;;-142.37;100.00;59669.53;5013122;28;20104;-66
2021/07/21 00:55:18;;;;;;;1.35;0.50;;;;;;;-142.37;100.00;59669.53;5013116;28;20389;-65
2021/07/21 00:57:46;;;;;;;1.60;0.32;;;;;;;-142.37;100.00;59669.53;5013135;28;20072;-65
2021/07/21 01:00:17;;;;;;;1.00;0.32;;;;;;;-142.37;100.00;59669.53;5012395;28;20092;-65
2021/07/21 01:02:45;;;;;;;1.60;0.38;;;;;;;-142.37;100.00;59669.53;5011899;28;20029;-66
2021/07/21 01:05:15;;;;;;;1.13;0.40;;;;;;;-142.37;100.00;59669.53;5012500;28;20030;-65
2021/07/21 01:07:44;;;;;;;0.80;0.25;;;;;;;-142.37;100.00;59669.53;5013327;28;20105;-65
2021/07/21 01:10:11;;;;;;;1.15;0.40;;;;;;;-142.37;100.00;59669.53;5012077;28;20136;-65
2021/07/21 01:12:45;;;;;;;0.38;0.20;;;;;;;-142.37;100.00;59669.53;5013559;28;20046;-64
2021/07/21 01:15:23;;;;;;;0.40;0.22;;;;;;;-142.37;100.00;59669.53;5013216;28;20022;-64
2021/07/21 01:17:57;;;;;;;0.63;0.28;;;;;;;-142.37;100.00;59669.53;5021471;28;20112;-65
2021/07/21 01:20:46;;;;;;;0.35;0.20;;;;;;;-142.37;100.00;59669.53;5036424;28;20071;-64
2021/07/21 01:23:30;;;;;;;1.20;0.40;;;;;;;-142.37;100.00;59669.53;5036538;28;20025;-64
2021/07/21 01:25:57;;;;;;;2.08;0.40;;;;;;;-142.37;100.00;59669.53;5036364;28;20025;-64
2021/07/21 01:28:26;;;;;;;1.13;0.20;;;;;;;-142.37;100.00;59669.53;5036294;28;20064;-64
2021/07/21 01:30:53;;;;;;;0.60;0.45;;;;;;;-142.37;100.00;59669.53;5036468;28;20032;-64
2021/07/21 01:33:21;;;;;;;0.88;0.38;;;;;;;-142.37;100.00;59669.53;5036625;28;20029;-63
2021/07/21 01:35:59;;;;;;;0.55;0.25;;;;;;;-142.37;100.00;59669.53;5036313;28;20030;-64
2021/07/21 01:38:30;;;;;;;0.63;0.30;;;;;;;-142.37;100.00;59669.53;5036124;28;20033;-63
2021/07/21 01:41:07;;;;;;;0.55;0.20;;;;;;;-142.37;100.00;59669.53;5035954;28;20338;-64
2021/07/21 01:43:34;;;;;;;0.60;0.20;;;;;;;-142.37;100.00;59669.53;5035284;28;20025;-65
2021/07/21 01:46:02;;;;;;;0.82;0.43;;;;;;;-142.37;100.00;59669.53;5036137;28;20021;-64
2021/07/21 01:48:36;;;;;;;0.98;0.50;;;;;;;-142.37;100.00;59669.53;5035798;28;20097;-64
2021/07/21 01:51:05;;;;;;;0.50;0.30;;;;;;;-142.37;100.00;59669.53;5035828;28;20028;-63
2021/07/21 01:53:35;;;;;;;1.80;0.30;;;;;;;-142.37;100.00;59669.53;5035816;28;20100;-64
2021/07/21 01:56:02;;;;;;;1.52;0.30;;;;;;;-142.37;100.00;59669.53;5035818;28;20031;-63
2021/07/21 01:58:30;;;;;;;0.73;0.25;;;;;;;-142.37;100.00;59669.53;5036251;28;20396;-64
2021/07/21 02:00:56;;;;;;;0.77;0.40;;;;;;;-142.37;100.00;59669.53;5035613;28;20064;-64
2021/07/21 02:03:23;;;;;;;1.50;0.40;;;;;;;-142.37;100.00;59669.53;5035951;28;20079;-64
2021/07/21 02:05:53;;;;;;;1.50;0.47;;;;;;;-142.37;100.00;59669.53;5035687;28;20517;-65
2021/07/21 02:08:21;;;;;;;1.40;0.30;;;;;;;-142.37;100.00;59669.53;5035575;28;20535;-64
2021/07/21 02:10:47;;;;;;;1.52;0.30;;;;;;;-142.37;100.00;59669.53;5035484;28;20052;-64
2021/07/21 02:13:15;;;;;;;1.02;0.50;;;;;;;-142.37;100.00;59669.53;5035462;28;20032;-65
2021/07/21 02:15:44;;;;;;;0.88;0.13;;;;;;;-142.37;100.00;59669.53;5035542;28;20402;-64
2021/07/21 02:18:09;;;;;;;2.17;0.20;;;;;;;-142.37;100.00;59669.53;5026591;28;20029;-64
2021/07/21 02:20:36;;;;;;;0.70;0.10;;;;;;;-142.37;100.00;59669.53;5015342;28;20029;-65
2021/07/21 02:23:02;;;;;;;0.60;0.20;;;;;;;-142.37;100.00;59669.53;5015682;28;20025;-65
2021/07/21 02:25:28;;;;;;;0.30;0.20;;;;;;;-142.37;100.00;59669.53;5014600;28;20488;-65
2021/07/21 02:27:56;;;;;;;0.93;0.40;;;;;;;-142.37;100.00;59669.53;5014832;28;20060;-65
2021/07/21 02:30:23;;;;;;;0.50;0.35;;;;;;;-142.37;100.00;59669.53;5015212;28;20049;-65
2021/07/21 02:33:13;;;;;;;0.52;0.30;;;;;;;-142.37;100.00;59669.53;5015553;28;20029;-65
2021/07/21 02:35:38;;;;;;;1.15;0.30;;;;;;;-142.37;100.00;59669.53;5015474;28;20064;-66
2021/07/21 02:38:04;;;;;;;1.85;0.30;;;;;;;-142.37;100.00;59669.53;5015276;28;20054;-65
2021/07/21 02:40:31;;;;;;;0.25;0.10;;;;;;;-142.37;100.00;59669.53;5014801;28;20452;-66
2021/07/21 02:42:57;;;;;;;0.40;0.15;;;;;;;-142.37;100.00;59669.53;5015337;28;20431;-66
2021/07/21 02:45:23;;;;;;;1.08;0.55;;;;;;;-142.37;100.00;59669.53;5015460;28;20109;-63
2021/07/21 02:47:48;;;;;;;0.95;0.25;;;;;;;-142.37;100.00;59669.53;5015329;28;20112;-64
2021/07/21 02:50:16;;;;;;;0.55;0.28;;;;;;;-142.37;100.00;59669.53;5015181;28;20428;-64
2021/07/21 02:52:53;;;;;;;1.15;0.55;;;;;;;-142.37;100.00;59669.53;5014811;28;20108;-64
2021/07/21 02:55:24;;;;;;;1.40;0.30;;;;;;;-142.37;100.00;59669.53;5014985;28;20512;-63
2021/07/21 02:57:52;;;;;;;1.80;0.30;;;;;;;-142.37;100.00;59669.53;5015127;28;20034;-64
2021/07/21 03:00:20;;;;;;;0.82;0.25;;;;;;;-142.37;100.00;59669.53;5014670;28;20049;-65
2021/07/21 03:02:48;;;;;;;2.28;0.63;;;;;;;-142.37;100.00;59669.53;5015348;28;20491;-65
2021/07/21 03:05:16;;;;;;;0.88;0.20;;;;;;;-142.37;100.00;59669.53;5014788;28;20036;-65
2021/07/21 03:07:46;;;;;;;0.95;0.38;;;;;;;-142.37;100.00;59669.53;5014741;28;20037;-65
2021/07/21 03:10:14;;;;;;;1.17;0.22;;;;;;;-142.37;100.00;59669.53;5014744;28;20064;-65
2021/07/21 03:12:45;;;;;;;0.52;0.20;;;;;;;-142.37;100.00;59669.53;5014644;28;20025;-65
2021/07/21 03:15:14;;;;;;;1.27;0.20;;;;;;;-142.37;100.00;59669.53;5014823;28;20018;-65
2021/07/21 03:17:43;;;;;;;0.65;0.30;;;;;;;-142.37;100.00;59669.53;5014772;28;20040;-65
2021/07/21 03:20:10;;;;;;;1.60;0.17;;;;;;;-142.37;100.00;59669.53;5013365;28;20037;-66
2021/07/21 03:22:39;;;;;;;0.77;0.30;;;;;;;-142.37;100.00;59669.53;5014519;28;20046;-66
2021/07/21 03:25:07;;;;;;;0.10;0.10;;;;;;;-142.37;100.00;59669.53;5014301;28;20025;-65
2021/07/21 03:27:38;;;;;;;0.10;0.10;;;;;;;-142.37;100.00;59669.53;5014295;28;20026;-65
2021/07/21 03:30:08;;;;;;;1.40;0.32;;;;;;;-142.37;100.00;59669.53;5017596;28;20014;-64
2021/07/21 03:32:34;;;;;;;0.30;0.20;;;;;;;-142.37;100.00;59669.53;5033649;28;20025;-64
2021/07/21 03:35:01;;;;;;;1.10;0.20;;;;;;;-142.37;100.00;59669.53;5033111;28;20532;-64
2021/07/21 03:37:27;;;;;;;0.35;0.10;;;;;;;-142.37;100.00;59669.53;5034184;28;20069;-64
2021/07/21 03:39:56;;;;;;;1.38;0.20;;;;;;;-142.37;100.00;59669.53;5034036;28;20025;-64
2021/07/21 03:42:27;;;;;;;1.00;0.30;;;;;;;-142.37;100.00;59669.53;5033961;28;20021;-64
2021/07/21 03:44:56;;;;;;;0.90;0.47;;;;;;;-142.37;100.00;59669.53;5033857;28;20021;-64
2021/07/21 03:47:21;;;;;;;1.35;0.50;;;;;;;-142.37;100.00;59669.53;5034029;28;20107;-64
2021/07/21 03:49:49;;;;;;;0.77;0.20;;;;;;;-142.37;100.00;59669.53;5033951;28;20436;-64
2021/07/21 03:52:15;;;;;;;2.17;0.38;;;;;;;-142.37;100.00;59669.53;5033688;28;20049;-64
2021/07/21 03:54:41;;;;;;;0.40;0.30;;;;;;;-142.37;100.00;59669.53;5033864;28;20468;-65
2021/07/21 03:57:07;;;;;;;0.40;0.30;;;;;;;-142.37;100.00;59669.53;5032603;28;20411;-65
2021/07/21 03:59:32;;;;;;;1.20;0.30;;;;;;;-142.37;100.00;59669.53;5033584;28;20136;-66
2021/07/21 04:01:59;;;;;;;1.23;0.20;;;;;;;-142.37;100.00;59669.53;5033363;28;20133;-66
2021/07/21 04:04:26;;;;;;;0.65;0.30;;;;;;;-142.37;100.00;59669.53;5033640;28;20033;-65
2021/07/21 04:06:54;;;;;;;0.43;0.25;;;;;;;-142.37;100.00;59669.53;5033661;28;20029;-66
2021/07/21 04:09:21;;;;;;;0.98;0.22;;;;;;;-142.37;100.00;59669.53;5033503;28;20063;-65
2021/07/21 04:11:50;;;;;;;0.50;0.20;;;;;;;-142.37;100.00;59669.53;5033598;28;20029;-64
2021/07/21 04:14:17;;;;;;;0.73;0.50;;;;;;;-142.37;100.00;59669.53;5033682;28;20065;-63
2021/07/21 04:16:44;;;;;;;1.38;0.28;;;;;;;-142.37;100.00;59669.53;5033557;28;20025;-64
2021/07/21 04:19:13;;;;;;;0.55;0.20;;;;;;;-142.37;100.00;59669.53;5033547;28;20116;-65
2021/07/21 04:21:46;;;;;;;0.47;0.20;;;;;;;-142.37;100.00;59669.53;5033717;28;20025;-64
2021/07/21 04:24:12;;;;;;;0.70;0.20;;;;;;;-142.37;100.00;59669.53;5033211;28;20025;-64
2021/07/21 04:26:40;;;;;;;1.10;0.32;;;;;;;-142.37;100.00;59669.53;5033569;28;20472;-64
2021/07/21 04:29:10;;;;;;;0.40;0.10;;;;;;;-142.37;100.00;59669.53;5033288;28;20013;-64
2021/07/21 04:31:37;;;;;;;1.35;0.38;;;;;;;-142.37;100.00;59669.53;5033224;28;20022;-65
2021/07/21 04:34:05;;;;;;;0.15;0.15;;;;;;;-142.37;100.00;59669.53;5033093;28;20031;-65
2021/07/21 04:36:30;;;;;;;0.17;0.17;;;;;;;-142.37;100.00;59669.53;5033145;28;20109;-65
2021/07/21 04:38:57;;;;;;;0.35;0.30;;;;;;;-142.37;100.00;59669.53;5032935;28;20443;-66
2021/07/21 04:41:23;;;;;;;0.65;0.30;;;;;;;-142.37;100.00;59669.53;5033461;28;20025;-65
2021/07/21 04:43:49;;;;;;;0.40;0.40;;;;;;;-142.37;100.00;59669.53;5032991;28;20376;-65
2021/07/21 04:46:18;;;;;;;0.50;0.30;;;;;;;-142.37;100.00;59669.53;5033007;28;20057;-65
2021/07/21 04:48:46;;;;;;;0.40;0.20;;;;;;;-142.37;100.00;59669.53;5032914;28;20045;-64
2021/07/21 04:51:15;;;;;;;0.88;0.30;;;;;;;-142.37;100.00;59669.53;5032886;28;20100;-63
2021/07/21 04:53:41;;;;;;;0.50;0.40;;;;;;;-142.37;100.00;59669.53;5037051;28;20439;-64
2021/07/21 04:56:07;;;;;;;0.80;0.20;;;;;;;-142.37;100.00;59669.53;5037027;28;20030;-64
2021/07/21 04:58:32;;;;;;;0.50;0.20;;;;;;;-142.37;100.00;59669.53;5037254;28;20080;-65
2021/07/21 05:00:58;;;;;;;0.40;0.20;;;;;;;-142.37;100.00;59669.53;5036637;28;20087;-64
2021/07/21 05:03:24;;;;;;;0.85;0.40;;;;;;;-142.37;100.00;59669.53;5037033;28;20427;-65
2021/07/21 05:05:49;;;;;;;1.10;0.30;;;;;;;-142.37;100.00;59669.53;5037104;28;20042;-64
2021/07/21 05:08:15;;;;;;;1.00;0.10;;;;;;;-142.37;100.00;59669.53;5037021;28;20018;-65
2021/07/21 05:10:46;;;;;;;0.95;0.47;;;;;;;-142.37;100.00;59669.53;5037090;28;20029;-65
2021/07/21 05:13:11;;;;;;;1.02;0.10;;;;;;;-142.37;100.00;59669.53;5036825;28;20030;-65
2021/07/21 05:15:37;;;;;;;1.02;0.32;;;;;;;-142.37;100.00;59669.53;5036775;28;20070;-66
2021/07/21 05:18:02;;;;;;;0.88;0.30;;;;;;;-142.37;100.00;59669.53;5029009;28;20061;-65
2021/07/21 05:20:28;;;;;;;1.23;0.20;;;;;;;-142.37;100.00;59669.53;5017038;28;20065;-65
2021/07/21 05:22:54;;;;;;;0.65;0.22;;;;;;;-142.37;100.00;59669.53;5017368;28;20013;-64
2021/07/21 05:25:20;;;;;;;0.77;0.40;;;;;;;-142.37;100.00;59669.53;5016749;28;20358;-64
2021/07/21 05:27:46;;;;;;;1.05;0.20;;;;;;;-142.37;100.00;59669.53;5017074;28;20109;-65
2021/07/21 05:30:13;;;;;;;1.23;0.20;;;;;;;-142.37;100.00;59669.53;5016585;28;20428;-66
2021/07/21 05:32:38;;;;;;;0.98;0.28;;;;;;;-142.37;100.00;59669.53;5016842;28;20021;-64
2021/07/21 05:35:05;;;;;;;2.63;0.45;;;;;;;-142.37;100.00;59669.53;5016713;28;20033;-64
2021/07/21 05:37:31;;;;;;;0.40;0.25;;;;;;;-142.37;100.00;59669.53;5016585;28;20022;-64
2021/07/21 05:39:56;;;;;;;0.65;0.22;;;;;;;-142.37;100.00;59669.53;5016691;28;20022;-64
2021/07/21 05:42:22;;;;;;;0.65;0.10;;;;;;;-142.37;100.00;59669.53;5016471;28;20036;-64
2021/07/21 05:44:47;;;;;;;1.02;0.20;;;;;;;-142.37;100.00;59669.53;5016451;28;20036;-65
2021/07/21 05:47:13;;;;;;;0.55;0.10;;;;;;;-142.37;100.00;59669.53;5016287;28;20079;-65
2021/07/21 05:49:38;;;;;;;0.40;0.40;;;;;;;-142.37;100.00;59669.53;5016525;28;20476;-66
2021/07/21 05:52:05;;;;;;;0.47;0.10;;;;;;;-142.37;100.00;59669.53;5016148;28;20385;-65
2021/07/21 05:54:30;;;;;;;1.60;0.30;;;;;;;-142.37;100.00;59669.53;5016592;28;20465;-65
2021/07/21 05:56:55;;;;;;;0.85;0.20;;;;;;;-142.37;100.00;59669.53;5016338;28;20038;-65
2021/07/21 05:59:21;;;;;;;0.90;0.20;;;;;;;-142.37;100.00;59669.53;5015866;28;20054;-65
2021/07/21 06:01:46;;;;;;;0.32;0.10;;;;;;;-142.37;100.00;59669.53;5016383;28;20088;-64
2021/07/21 06:04:11;;;;;;;0.38;0.35;;;;;;;-142.37;100.00;59669.53;5015748;28;20057;-64
2021/07/21 06:06:37;;;;;;;1.42;0.30;;;;;;;-142.37;100.00;59669.53;5016389;28;20033;-64
2021/07/21 06:09:04;;;;;;;0.40;0.20;;;;;;;-142.37;100.00;59669.53;5015934;28;20022;-64
2021/07/21 06:11:29;;;;;;;2.75;0.57;;;;;;;-142.37;100.00;59669.53;5016132;28;20041;-64
2021/07/21 06:13:59;;;;;;;1.50;0.32;;;;;;;-142.37;100.00;59669.53;5016321;28;20030;-64
2021/07/21 06:16:25;;;;;;;0.98;0.20;;;;;;;-142.37;100.00;59669.53;5016280;28;20388;-64
2021/07/21 06:18:50;;;;;;;0.75;0.22;;;;;;;-142.37;100.00;59669.53;5030015;28;20148;-65
2021/07/21 06:21:15;;;;;;;0.35;0.20;;;;;;;-142.37;100.00;59669.53;5035359;28;20075;-65
2021/07/21 06:23:41;;;;;;;0.40;0.10;;;;;;;-142.37;100.00;59669.53;5035970;28;20071;-64
2021/07/21 06:26:06;;;;;;;0.95;0.40;;;;;;;-142.37;100.00;59669.53;5035506;28;20364;-66
2021/07/21 06:28:34;;;;;;;0.45;0.20;;;;;;;-142.37;100.00;59669.53;5035778;28;20024;-65
2021/07/21 06:31:00;;;;;;;0.93;0.17;;;;;;;-142.37;100.00;59669.53;5035695;28;20036;-65
2021/07/21 06:33:25;;;;;;;2.08;0.30;;;;;;;-142.37;100.00;59669.53;5035616;28;20033;-65
2021/07/21 06:35:50;;;;;;;0.88;0.10;;;;;;;-142.37;100.00;59669.53;5027499;28;20104;-65
2021/07/21 06:38:16;;;;;;;0.68;0.10;;;;;;;-142.37;100.00;59669.53;5015529;28;20026;-63
2021/07/21 06:40:41;;;;;;;0.85;0.30;;;;;;;-142.37;100.00;59669.53;5015759;28;20080;-64
2021/07/21 06:43:08;;;;;;;3.03;0.10;;;;;;;-142.37;100.00;59669.53;5031939;28;20061;-64
2021/07/21 06:45:33;;;;;;;0.60;0.10;;;;;;;-142.37;100.00;59669.53;5035544;28;20031;-65
2021/07/21 06:47:58;;;;;;;0.30;0.10;;;;;;;-142.37;100.00;59669.53;5029536;28;20022;-65
2021/07/21 06:50:24;;;;;;;0.43;0.10;;;;;;;-142.37;100.00;59669.53;5035354;28;20029;-65
2021/07/21 06:52:49;;;;;;;1.38;0.40;;;;;;;-142.37;100.00;59669.53;5034999;28;20427;-65
2021/07/21 06:55:15;;;;;;;0.38;0.10;;;;;;;-142.37;100.00;59669.53;5034784;28;20024;-65
2021/07/21 06:57:40;;;;;;;0.35;0.20;;;;;;;-142.37;100.00;59669.53;5035064;28;20415;-65
2021/07/21 07:00:07;;;;;;;1.95;0.30;;;;;;;-142.37;100.00;59669.53;5034628;28;20491;-66
2021/07/21 07:02:33;;;;;;;0.55;0.20;;;;;;;-142.37;100.00;59669.53;5034395;28;20386;-66
2021/07/21 07:04:58;;;;;;;0.50;0.20;;;;;;;-142.37;100.00;59669.53;5034981;28;20037;-67
2021/07/21 07:07:23;;;;;;;0.60;0.20;;;;;;;-142.37;100.00;59669.53;5034838;28;20018;-63
2021/07/21 07:09:49;;;;;;;1.30;0.55;;;;;;;-142.37;100.00;59669.53;5035070;28;20040;-64
2021/07/21 07:12:17;;;;;;;0.50;0.30;;;;;;;-142.37;100.00;59669.53;5033737;28;20026;-64
2021/07/21 07:14:42;;;;;;;0.52;0.28;;;;;;;-142.37;100.00;59669.53;5030027;28;20460;-64
2021/07/21 07:17:09;;;;;;;1.27;0.30;;;;;;;-142.37;100.00;59669.53;5034383;28;20036;-64
2021/07/21 07:19:35;;;;;;;0.30;0.10;;;;;;;-142.37;100.00;59669.53;5034137;28;20029;-65
2021/07/21 07:22:04;;;;;;;1.42;0.25;;;;;;;-142.37;100.00;59669.53;5029933;28;20029;-66
2021/07/21 07:24:30;;;;;;;0.98;0.35;;;;;;;-142.37;100.00;59669.53;5034217;28;20037;-66
2021/07/21 07:26:57;;;;;;;1.02;0.45;;;;;;;-142.37;100.00;59669.53;5032549;28;20029;-65
2021/07/21 07:29:23;;;;;;;1.20;0.47;;;;;;;-142.37;100.00;59669.53;5034602;28;20498;-65
2021/07/21 07:31:49;;;;;;;1.25;0.30;;;;;;;-142.37;100.00;59669.53;5028530;28;20025;-65
2021/07/21 07:34:15;;;;;;;0.32;0.30;;;;;;;-142.37;100.00;59669.53;5034441;28;20036;-65
2021/07/21 07:36:41;;;;;;;0.82;0.50;;;;;;;-142.37;100.00;59669.53;5028946;28;20044;-62
2021/07/21 07:39:09;;;;;;;0.95;0.30;;;;;;;-142.37;100.00;59669.53;5029369;28;20404;-64
2021/07/21 07:41:38;;;;;;;0.40;0.30;;;;;;;-142.37;100.00;59669.53;5033998;28;20032;-64
2021/07/21 07:44:06;;;;;;;0.60;0.20;;;;;;;-142.37;100.00;59669.53;5023056;28;20108;-65
2021/07/21 07:46:32;;;;;;;0.70;0.28;;;;;;;-142.37;100.00;59669.53;5015203;28;20492;-63
2021/07/21 07:48:58;;;;;;;1.48;0.35;;;;;;;-142.37;100.00;59669.53;5031606;28;20052;-64
2021/07/21 07:51:24;;;;;;;1.27;0.47;;;;;;;-142.37;100.00;59669.53;5033392;28;20025;-64
2021/07/21 07:53:51;;;;;;;1.52;0.43;;;;;;;-142.37;100.00;59669.53;5032256;28;20056;-65
2021/07/21 07:56:17;;;;;;;0.30;0.30;;;;;;;-142.37;100.00;59669.53;5017493;28;20017;-65
2021/07/21 07:58:42;;;;;;;0.95;0.30;;;;;;;-142.37;100.00;59669.53;5033617;28;20076;-65
2021/07/21 08:01:08;;;;;;;0.82;0.30;;;;;;;-142.37;100.00;59669.53;5030447;28;20065;-64
2021/07/21 08:03:34;;;;;;;0.65;0.25;;;;;;;-142.37;100.00;59669.53;5030156;28;20602;-64
2021/07/21 08:06:02;;;;;;;0.88;0.20;;;;;;;-142.37;100.00;59669.53;5023396;28;20048;-65
2021/07/21 08:08:27;;;;;;;1.08;0.10;;;;;;;-142.37;100.00;59669.53;5023047;28;20025;-66
2021/07/21 08:10:53;;;;;;;0.68;0.20;;;;;;;-142.37;100.00;59669.53;5048795;28;20080;-66
2021/07/21 08:13:22;;;;;;;0.98;0.43;;;;;;;-142.37;100.00;59669.53;5029083;28;20030;-66
2021/07/21 08:15:49;;;;;;;1.52;0.38;;;;;;;-142.37;100.00;59669.53;5016640;28;20034;-65
2021/07/21 08:18:15;;;;;;;0.88;0.20;;;;;;;-142.37;100.00;59669.53;5019922;28;20037;-64
2021/07/21 08:20:44;;;;;;;1.50;0.40;;;;;;;-142.37;100.00;59669.53;5013062;28;20388;-64
2021/07/21 08:23:11;;;;;;;2.35;0.47;;;;;;;-142.37;100.00;59669.53;5013682;28;20026;-64
2021/07/21 08:25:38;;;;;;;2.17;0.45;;;;;;;-142.37;100.00;59669.53;5013710;28;20026;-64
2021/07/21 08:28:04;;;;;;;0.60;0.28;;;;;;;-142.37;100.00;59669.53;5013444;28;20060;-65
2021/07/21 08:30:29;;;;;;;1.45;0.20;;;;;;;-142.37;100.00;59669.53;5017734;28;20030;-65
2021/07/21 08:32:56;;;;;;;0.47;0.28;;;;;;;-142.37;100.00;59669.53;5013199;28;20112;-64
2021/07/21 08:35:24;;;;;;;1.30;0.10;;;;;;;-142.37;100.00;59669.53;5016016;28;20025;-64
2021/07/21 08:37:50;;;;;;;0.30;0.10;;;;;;;-142.37;100.00;59669.53;5020283;28;20117;-64
2021/07/21 08:40:16;;;;;;;1.58;0.20;;;;;;;-142.37;100.00;59669.53;5013665;28;20525;-64
2021/07/21 08:42:42;;;;;;;0.68;0.20;;;;;;;-142.37;100.00;59669.53;5016640;28;20034;-65
2021/07/21 08:45:09;;;;;;;1.55;0.38;;;;;;;-142.37;100.00;59669.53;5031300;28;20067;-66
2021/07/21 08:47:35;;;;;;;0.55;0.22;;;;;;;-142.37;100.00;59669.53;5020117;28;20041;-66
2021/07/21 08:50:06;;;;;;;0.80;0.20;;;;;;;-142.37;100.00;59669.53;5016424;28;20024;-66
2021/07/21 08:52:32;;;;;;;0.52;0.10;;;;;;;-142.37;100.00;59669.53;5033087;28;20464;-66
2021/07/21 08:54:58;;;;;;;0.40;0.10;;;;;;;-142.37;100.00;59669.53;5033007;28;20033;-62
2021/07/21 08:57:30;;;;;;;1.05;0.20;;;;;;;-142.37;100.00;59669.53;5033073;28;20025;-63
2021/07/21 08:59:57;;;;;;;1.45;0.20;;;;;;;-142.37;100.00;59669.53;5030406;28;20048;-63
2021/07/21 09:02:23;;;;;;;0.38;0.30;;;;;;;-142.37;100.00;59669.53;5032662;28;20095;-63
2021/07/21 09:04:49;;;;;;;1.17;0.20;;;;;;;-142.37;100.00;59669.53;5032818;28;20460;-63
2021/07/21 09:07:14;;;;;;;1.25;0.20;;;;;;;-142.37;100.00;59669.53;5024697;28;20152;-64
2021/07/21 09:09:39;;;;;;;0.75;0.20;;;;;;;-142.37;100.00;59669.53;5033302;28;20025;-64
2021/07/21 09:12:08;;;;;;;0.73;0.35;;;;;;;-142.37;100.00;59669.53;5023719;28;20444;-64
2021/07/21 09:14:34;;;;;;;1.25;0.30;;;;;;;-142.37;100.00;59669.53;5013405;28;20025;-65
2021/07/21 09:17:11;;;;;;;0.20;0.20;;;;;;;-142.37;100.00;59669.53;5012810;28;20084;-64
2021/07/21 09:19:39;;;;;;;0.20;0.10;;;;;;;-142.37;100.00;59669.53;5027962;28;20109;-63
2021/07/21 09:22:35;;;;;;;0.90;0.40;;;;;;;-142.37;100.00;59669.53;5032381;28;20112;-64
2021/07/21 09:25:17;;;;;;;0.10;0.10;;;;;;;-142.37;100.00;59669.53;5025625;28;20088;-63
2021/07/21 09:27:47;;;;;;;1.85;0.35;;;;;;;-142.37;100.00;59669.53;5026862;28;20052;-63
2021/07/21 09:30:16;;;;;;;1.05;0.20;;;;;;;-142.37;100.00;59669.53;5032898;28;20034;-63
2021/07/21 09:33:13;;;;;;;0.45;0.17;;;;;;;-142.37;100.00;59669.53;5032772;28;20068;-64
2021/07/21 09:35:40;;;;;;;1.45;0.20;;;;;;;-142.37;100.00;59669.53;5031564;28;20117;-63
2021/07/21 09:38:11;;;;;;;0.10;0.05;;;;;;;-142.37;100.00;59669.53;5034059;28;20487;-63
2021/07/21 09:40:42;;;;;;;0.75;0.30;;;;;;;-142.37;100.00;59669.53;5036394;28;20060;-63
2021/07/21 09:43:22;;;;;;;0.93;0.35;;;;;;;-142.37;100.00;59669.53;5036131;28;20048;-63
2021/07/21 09:45:49;;;;;;;0.10;0.10;;;;;;;-142.37;100.00;59669.53;5029786;28;20538;-63
2021/07/21 09:48:18;;;;;;;0.50;0.30;;;;;;;-142.37;100.00;59669.53;5034846;28;20064;-64
2021/07/21 09:50:45;;;;;;;0.45;0.38;;;;;;;-142.37;100.00;59669.53;5035772;28;20055;-64
2021/07/21 09:53:14;;;;;;;1.33;0.43;;;;;;;-142.37;100.00;59669.53;5036163;28;20025;-64
2021/07/21 09:55:43;;;;;;;0.95;0.13;;;;;;;-142.37;100.00;59669.53;5024594;28;20036;-62
2021/07/21 09:58:10;;;;;;;1.23;0.38;;;;;;;-142.37;100.00;59669.53;5024519;28;20029;-62
2021/07/21 10:00:43;;;;;;;0.50;0.20;;;;;;;-142.37;100.00;59669.53;5033737;28;20538;-62
2021/07/21 10:03:15;;;;;;;2.17;0.30;;;;;;;-142.37;100.00;59669.53;5016269;28;20037;-61
2021/07/21 10:05:52;;;;;;;1.45;0.32;;;;;;;-142.37;100.00;59669.53;5016403;28;20142;-61
2021/07/21 10:08:34;;;;;;;0.22;0.20;;;;;;;-142.37;100.00;59669.53;5035721;28;20411;-61
2021/07/21 10:11:27;;;;;;;1.15;0.30;;;;;;;-142.37;100.00;59669.53;5035668;28;20021;-62
2021/07/21 10:14:15;;;;;;;0.77;0.40;;;;;;;-142.37;100.00;59669.53;5035852;28;20439;-62
2021/07/21 10:16:43;;;;;;;1.05;0.60;;;;;;;-142.37;100.00;59669.53;5035464;28;20109;-62
2021/07/21 10:19:16;;;;;;;1.55;0.30;;;;;;;-142.37;100.00;59669.53;5026343;28;20049;-61
2021/07/21 10:21:46;;;;;;;0.63;0.30;;;;;;;-142.37;100.00;59669.53;5031809;28;20040;-62
2021/07/21 10:24:12;;;;;;;1.25;0.20;;;;;;;-142.37;100.00;59669.53;5030668;28;20064;-62
2021/07/21 10:26:40;;;;;;;0.70;0.50;;;;;;;-142.37;100.00;59669.53;5034300;28;20029;-63
2021/07/21 10:29:06;;;;;;;0.60;0.20;;;;;;;-142.37;100.00;59669.53;5034739;28;20033;-62
2021/07/21 10:31:33;;;;;;;1.75;0.40;;;;;;;-142.37;100.00;59669.53;5034371;28;20025;-62
2021/07/21 10:33:59;;;;;;;0.50;0.20;;;;;;;-142.37;100.00;59669.53;5035384;28;20029;-62
2021/07/21 10:36:25;;;;;;;0.50;0.20;;;;;;;-142.37;100.00;59669.53;5035469;28;20037;-63
2021/07/21 10:38:51;;;;;;;0.43;0.20;;;;;;;-142.37;100.00;59669.53;5034521;28;20028;-63
2021/07/21 10:41:17;;;;;;;0.52;0.20;;;;;;;-142.37;100.00;59669.53;5035211;28;20063;-64
2021/07/21 10:43:47;;;;;;;0.43;0.20;;;;;;;-142.37;100.00;59669.53;5033643;28;20399;-64
2021/07/21 10:46:34;;;;;;;1.65;0.30;;;;;;;-142.37;100.00;59669.53;5033552;28;20018;-64
2021/07/21 11:00:31;;;;;;;1.08;0.55;;;;;;;-142.37;100.00;59669.53;5012536;28;20421;-63
2021/07/21 11:03:19;;;;;;;0.68;0.13;;;;;;;-142.37;100.00;59669.53;4994153;28;20089;-64
2021/07/21 11:05:51;;;;;;;1.08;0.15;;;;;;;-142.37;100.00;59669.53;4988233;28;20393;-63
2021/07/21 11:08:22;;;;;;;0.40;0.10;;;;;;;-142.37;100.00;59669.53;4993195;28;20112;-63
2021/07/21 11:10:50;;;;;;;0.60;0.30;;;;;;;-142.37;100.00;59669.53;4993053;28;20080;-63
2021/07/21 11:13:27;;;;;;;0.32;0.13;;;;;;;-142.37;100.00;59669.53;4993126;28;20030;-65
2021/07/21 11:15:52;;;;;;;1.38;0.30;;;;;;;-142.37;100.00;59669.53;4993099;28;20034;-61
2021/07/21 11:18:23;;;;;;;2.40;0.35;;;;;;;-142.37;100.00;59669.53;5001930;28;20085;-59
2021/07/21 11:21:07;;;;;;;3.40;0.20;;;;;;;-142.37;100.00;59669.53;5012168;28;20056;-61
2021/07/21 11:23:42;;;;;;;0.98;0.10;;;;;;;-142.37;100.00;59669.53;5012549;28;20042;-62
2021/07/21 11:26:26;;;;;;;0.38;0.10;;;;;;;-142.37;100.00;59669.53;5012045;28;20435;-64
2021/07/21 11:28:52;;;;;;;;;;;;;;;-142.37;100.00;59669.53;5012840;28;20404;-64